アスタナ の空港の天気 - METARとTAF

アスタナ国際空港 ( UACC / TSE ) - カザフスタン アスタナ
飛行場実況気象(Metar)
観測時間01/18 15:30 QYZT (01/18 09:30 UTC)
風向・風速南南東 2m/s
視程10km以上
天気現象
なし
気温-19℃
湿度77%
気圧1031hPa
METARUACC 180930Z 15002MPS 130V200 CAVOK M19/M22 Q1031 R22/9///50 NOSIG RMK QFE742/0989
過去の天気等 Google飛行場航空写真 Wunderground天気予報

過去48時間のMETAR

飛行場予報(TAF)
発表時間: 1/18 11:00 QYZT (1/18 05:00 UTC)
予報対象時間: 18日12時 QYZT ~ 19日12時 QYZT
風向・風速南 6m/s
視程10km以上
全天の4割程度の雲 雲底高度 300m
全天の8割程度の雲 雲底高度 3,050m
18日18時 QYZT ~ 18日20時 QYZT に徐々に
風向・風速東南東 3m/s
19日1時 QYZT ~ 19日10時 QYZT に一時的に
視程3,000m
天気現象弱い霧雪 もや
全天の4割程度の雲 雲底高度 150m
TAF UACC 180500Z 1806/1906 18006MPS 9999 SCT010 BKN100 TXM14/1809Z TNM25/1902Z
BECMG 1812/1814 11003MPS
TEMPO 1819/1904 3000 -SG BR SCT005